createdAt,value
2018-10-05T00:00:03.732Z,7.90
2018-10-05T00:02:32.269Z,8.17
2018-10-05T00:05:00.847Z,7.93
2018-10-05T00:07:30.552Z,8.03
2018-10-05T00:09:59.161Z,8.40
2018-10-05T00:12:27.772Z,8.17
2018-10-05T00:14:56.390Z,7.63
2018-10-05T00:17:25.101Z,7.20
2018-10-05T00:19:53.615Z,7.47
2018-10-05T00:22:22.177Z,7.70
2018-10-05T00:24:50.700Z,7.77
2018-10-05T00:27:19.287Z,7.87
2018-10-05T00:29:47.811Z,7.43
2018-10-05T00:32:16.398Z,7.70
2018-10-05T00:34:44.891Z,6.97
2018-10-05T00:37:13.442Z,7.30
2018-10-05T00:39:41.991Z,7.20
2018-10-05T00:42:10.442Z,7.83
2018-10-05T00:44:38.894Z,6.77
2018-10-05T00:47:07.450Z,7.77
2018-10-05T00:49:36.008Z,8.07
2018-10-05T00:52:04.544Z,8.30
2018-10-05T00:54:33.000Z,7.40
2018-10-05T00:57:01.506Z,7.30
2018-10-05T00:59:30.062Z,7.43
2018-10-05T01:01:58.586Z,7.57
2018-10-05T01:04:27.065Z,8.00
2018-10-05T01:06:55.539Z,8.27
2018-10-05T01:09:24.105Z,8.07
2018-10-05T01:11:52.659Z,7.87
2018-10-05T01:14:21.176Z,7.43
2018-10-05T01:16:49.663Z,6.60
2018-10-05T01:19:18.206Z,7.27
2018-10-05T01:21:46.679Z,7.07
2018-10-05T01:24:15.183Z,7.80
2018-10-05T01:26:43.703Z,7.73
2018-10-05T01:29:12.172Z,7.27
2018-10-05T01:31:40.629Z,7.33
2018-10-05T01:34:09.132Z,7.93
2018-10-05T01:36:37.586Z,7.20
2018-10-05T01:39:06.823Z,7.90
2018-10-05T01:41:35.310Z,6.90
2018-10-05T01:44:03.807Z,7.50
2018-10-05T01:46:32.289Z,7.90
2018-10-05T01:49:00.825Z,7.07
2018-10-05T01:51:32.894Z,6.93
2018-10-05T01:54:02.259Z,7.37
2018-10-05T01:56:31.229Z,7.13
2018-10-05T01:59:00.302Z,6.87
2018-10-05T02:01:36.636Z,7.63
2018-10-05T02:04:06.021Z,7.17
2018-10-05T02:06:34.506Z,6.97
2018-10-05T02:09:03.306Z,6.37
2018-10-05T02:11:31.813Z,7.40
2018-10-05T02:14:00.385Z,8.10
2018-10-05T02:16:28.911Z,7.60
2018-10-05T02:18:57.446Z,7.50
2018-10-05T02:21:25.938Z,7.83
2018-10-05T02:23:54.521Z,6.63
2018-10-05T02:26:22.967Z,6.67
2018-10-05T02:28:51.434Z,7.07
2018-10-05T02:31:19.875Z,6.93
2018-10-05T02:33:48.354Z,7.30
2018-10-05T02:36:16.889Z,7.57
2018-10-05T02:38:45.442Z,8.00
2018-10-05T02:41:13.929Z,6.40
2018-10-05T02:43:42.422Z,7.33
2018-10-05T02:46:10.881Z,7.30
2018-10-05T02:48:39.418Z,6.77
2018-10-05T02:51:07.875Z,6.77
2018-10-05T02:53:36.803Z,7.37
2018-10-05T02:56:05.340Z,6.37
2018-10-05T02:58:33.845Z,6.70
2018-10-05T03:01:13.513Z,6.73
2018-10-05T03:03:42.057Z,6.80
2018-10-05T03:06:10.613Z,7.23
2018-10-05T03:08:39.123Z,8.00
2018-10-05T03:11:07.691Z,7.70
2018-10-05T03:13:36.264Z,7.53
2018-10-05T03:16:04.761Z,7.23
2018-10-05T03:18:33.269Z,7.90
2018-10-05T03:21:01.903Z,7.63
2018-10-05T03:23:30.529Z,7.03
2018-10-05T03:25:59.091Z,7.50
2018-10-05T03:28:27.599Z,8.67
2018-10-05T03:30:56.153Z,6.33
2018-10-05T03:33:24.596Z,7.17
2018-10-05T03:35:53.119Z,7.23
2018-10-05T03:38:21.634Z,8.00
2018-10-05T03:40:50.117Z,7.97
2018-10-05T03:43:18.625Z,7.17
2018-10-05T03:45:47.076Z,8.37
2018-10-05T03:48:15.549Z,7.73
2018-10-05T03:50:43.998Z,8.23
2018-10-05T03:53:12.450Z,7.80
2018-10-05T03:55:41.007Z,7.67
2018-10-05T03:58:09.541Z,7.40
2018-10-05T04:00:38.059Z,8.80
2018-10-05T04:03:06.573Z,7.70
2018-10-05T04:05:35.071Z,7.57
2018-10-05T04:08:03.587Z,7.93
2018-10-05T04:10:32.128Z,8.00
2018-10-05T04:13:00.647Z,8.33
2018-10-05T04:15:29.147Z,8.53
2018-10-05T04:17:57.684Z,7.60
2018-10-05T04:20:26.227Z,8.57
2018-10-05T04:22:54.725Z,7.20
2018-10-05T04:25:23.220Z,8.30
2018-10-05T04:27:51.701Z,8.37
2018-10-05T04:30:20.263Z,8.07
2018-10-05T04:32:48.822Z,8.87
2018-10-05T04:35:17.347Z,7.97
2018-10-05T04:37:45.900Z,8.10
2018-10-05T04:40:14.504Z,7.97
2018-10-05T04:42:42.990Z,7.77
2018-10-05T04:48:01.834Z,8.17
2018-10-05T04:50:30.269Z,8.73
2018-10-05T04:52:58.843Z,7.83
2018-10-05T04:55:27.345Z,7.17
2018-10-05T04:57:55.816Z,8.90
2018-10-05T05:00:24.385Z,8.70
2018-10-05T05:02:52.920Z,8.43
2018-10-05T05:05:21.413Z,7.47
2018-10-05T05:07:50.032Z,8.40
2018-10-05T05:10:18.575Z,8.60
2018-10-05T05:12:47.135Z,9.00
2018-10-05T05:15:15.698Z,7.87
2018-10-05T05:17:44.242Z,7.17
2018-10-05T05:20:12.839Z,8.47
2018-10-05T05:22:41.425Z,7.83
2018-10-05T05:25:09.980Z,8.00
2018-10-05T05:27:38.521Z,8.13
2018-10-05T05:30:07.423Z,7.70
2018-10-05T05:32:35.941Z,8.03
2018-10-05T05:35:04.593Z,8.27
2018-10-05T05:37:33.097Z,7.63
2018-10-05T05:40:01.627Z,7.50
2018-10-05T05:42:30.285Z,7.53
2018-10-05T05:44:58.811Z,8.07
2018-10-05T05:47:27.413Z,7.90
2018-10-05T05:49:55.935Z,8.17
2018-10-05T05:52:24.622Z,8.77
2018-10-05T05:54:53.362Z,7.50
2018-10-05T05:57:22.012Z,7.30
2018-10-05T05:59:50.507Z,7.53
2018-10-05T06:02:19.080Z,7.87
2018-10-05T06:04:47.613Z,8.07
2018-10-05T06:07:16.203Z,7.30
2018-10-05T06:09:44.768Z,7.27
2018-10-05T06:12:13.650Z,7.10
2018-10-05T06:14:42.175Z,8.23
2018-10-05T06:17:10.743Z,7.90
2018-10-05T06:19:39.351Z,7.03
2018-10-05T06:22:08.043Z,7.07
2018-10-05T06:24:36.536Z,8.30
2018-10-05T06:27:05.373Z,8.07
2018-10-05T06:29:35.608Z,7.20
2018-10-05T06:32:04.588Z,6.63
2018-10-05T06:34:33.135Z,6.13
2018-10-05T06:37:01.729Z,5.73
2018-10-05T06:39:30.318Z,5.40
2018-10-05T06:41:58.913Z,5.57
2018-10-05T06:44:27.555Z,5.60
2018-10-05T06:46:56.209Z,5.73
2018-10-05T06:49:24.858Z,4.73
2018-10-05T06:51:53.576Z,6.03
2018-10-05T06:54:22.128Z,6.13
2018-10-05T06:56:50.877Z,6.00
2018-10-05T06:59:19.378Z,6.63
2018-10-05T07:01:48.045Z,5.83
2018-10-05T07:04:16.548Z,5.90
2018-10-05T07:06:45.053Z,5.97
2018-10-05T07:09:13.550Z,6.00
2018-10-05T07:11:42.098Z,6.40
2018-10-05T07:14:10.567Z,6.40
2018-10-05T07:16:39.113Z,6.80
2018-10-05T07:19:07.642Z,6.60
2018-10-05T07:21:36.131Z,5.40
2018-10-05T07:24:04.597Z,4.70
2018-10-05T07:26:33.106Z,6.33
2018-10-05T07:29:01.552Z,5.90
2018-10-05T07:31:30.047Z,6.50
2018-10-05T07:33:58.514Z,4.03
2018-10-05T07:36:27.084Z,4.63
2018-10-05T07:38:55.587Z,2.97
2018-10-05T07:41:24.410Z,3.63
2018-10-05T07:46:45.926Z,3.87
2018-10-05T07:49:14.898Z,3.93
2018-10-05T07:51:43.668Z,3.57
2018-10-05T07:54:12.201Z,5.50
2018-10-05T07:56:40.795Z,3.10
2018-10-05T07:59:09.430Z,3.70
2018-10-05T08:01:42.262Z,3.50
2018-10-05T08:04:10.700Z,3.73
2018-10-05T08:06:39.729Z,3.60
2018-10-05T08:09:08.204Z,3.10
2018-10-05T08:11:36.704Z,3.00
2018-10-05T08:14:05.155Z,3.30
2018-10-05T08:16:33.748Z,3.53
2018-10-05T08:19:02.308Z,3.80
2018-10-05T08:21:30.921Z,3.27
2018-10-05T08:23:59.363Z,3.70
2018-10-05T08:26:28.149Z,3.40
2018-10-05T08:28:57.030Z,3.20
2018-10-05T08:31:25.716Z,4.10
2018-10-05T08:33:54.414Z,3.02
2018-10-05T08:36:23.185Z,3.05
2018-10-05T08:38:52.171Z,2.83
2018-10-05T08:41:20.720Z,3.40
2018-10-05T08:43:49.769Z,3.00
2018-10-05T08:46:18.674Z,2.92
2018-10-05T08:48:47.971Z,2.95
2018-10-05T08:51:20.605Z,3.27
2018-10-05T08:53:49.611Z,3.37
2018-10-05T08:56:18.055Z,3.00
2018-10-05T08:58:46.627Z,3.10
2018-10-05T09:01:15.251Z,2.40
2018-10-05T09:03:43.929Z,3.67
2018-10-05T09:06:12.537Z,2.87
2018-10-05T09:08:41.276Z,2.92
2018-10-05T09:11:09.938Z,2.87
2018-10-05T09:13:41.306Z,3.65
2018-10-05T09:16:09.787Z,3.00
2018-10-05T09:18:38.387Z,2.85
2018-10-05T09:21:06.931Z,3.40
2018-10-05T09:23:35.664Z,3.58
2018-10-05T09:26:04.219Z,3.60
2018-10-05T09:28:33.100Z,2.92
2018-10-05T09:31:01.663Z,3.15
2018-10-05T09:33:31.202Z,3.30
2018-10-05T09:35:59.847Z,3.10
2018-10-05T09:38:28.573Z,2.87
2018-10-05T09:40:57.130Z,3.25
2018-10-05T09:43:27.984Z,2.92
2018-10-05T09:46:00.908Z,3.40
2018-10-05T09:48:29.411Z,3.75
2018-10-05T09:50:58.330Z,3.50
2018-10-05T09:53:26.832Z,3.05
2018-10-05T09:55:55.430Z,2.75
2018-10-05T09:58:23.961Z,3.62
2018-10-05T10:00:57.431Z,3.00
2018-10-05T10:03:30.579Z,2.55
2018-10-05T10:06:00.156Z,2.90
2018-10-05T10:08:28.882Z,3.37
2018-10-05T10:10:57.592Z,2.70
2018-10-05T10:13:26.497Z,3.12
2018-10-05T10:15:56.071Z,2.95
2018-10-05T10:18:24.868Z,3.02
2018-10-05T10:20:53.866Z,2.90
2018-10-05T10:23:22.428Z,3.33
2018-10-05T10:25:50.951Z,2.70
2018-10-05T10:28:19.520Z,3.20
2018-10-05T10:30:47.936Z,2.77
2018-10-05T10:33:16.863Z,2.40
2018-10-05T10:35:45.393Z,2.85
2018-10-05T10:38:13.953Z,3.05
2018-10-05T10:40:42.652Z,2.70
2018-10-05T10:43:11.213Z,3.05
2018-10-05T10:45:39.755Z,2.60
2018-10-05T10:48:10.501Z,2.35
2018-10-05T10:50:39.485Z,2.47
2018-10-05T10:53:09.823Z,3.62
2018-10-05T10:55:39.829Z,2.70
2018-10-05T10:58:08.443Z,2.22
2018-10-05T11:00:36.935Z,2.50
2018-10-05T11:03:05.456Z,2.42
2018-10-05T11:05:33.942Z,2.10
2018-10-05T11:08:02.417Z,2.50
2018-10-05T11:10:30.897Z,2.62
2018-10-05T11:12:59.390Z,2.35
2018-10-05T11:15:27.952Z,3.08
2018-10-05T11:17:56.438Z,2.80
2018-10-05T11:20:25.075Z,2.50
2018-10-05T11:22:53.640Z,2.30
2018-10-05T11:25:22.198Z,2.20
2018-10-05T11:27:50.760Z,2.33
2018-10-05T11:30:19.313Z,2.62
2018-10-05T11:32:47.940Z,2.42
2018-10-05T11:35:16.448Z,1.82
2018-10-05T11:37:44.937Z,2.00
2018-10-05T11:40:13.423Z,2.10
2018-10-05T11:42:42.027Z,2.50
2018-10-05T11:45:10.622Z,2.33
2018-10-05T11:47:39.227Z,2.30
2018-10-05T11:50:07.695Z,2.20
2018-10-05T11:52:36.262Z,2.20
2018-10-05T11:55:04.746Z,2.50
2018-10-05T11:57:33.267Z,2.27
2018-10-05T12:00:01.853Z,2.60
2018-10-05T12:02:30.496Z,2.20
2018-10-05T12:04:59.014Z,2.27
2018-10-05T12:07:27.551Z,2.27
2018-10-05T12:09:56.046Z,1.80
2018-10-05T12:12:24.559Z,2.05
2018-10-05T12:14:53.064Z,2.10
2018-10-05T12:17:21.658Z,2.00
2018-10-05T12:19:50.242Z,2.17
2018-10-05T12:22:18.851Z,2.00
2018-10-05T12:24:47.386Z,2.08
2018-10-05T12:27:15.963Z,1.60
2018-10-05T12:29:44.493Z,1.80
2018-10-05T12:32:13.066Z,1.90
2018-10-05T12:34:42.725Z,1.67
2018-10-05T12:37:12.829Z,1.80
2018-10-05T12:39:41.569Z,2.00
2018-10-05T12:42:10.237Z,2.07
2018-10-05T12:44:38.748Z,2.07
2018-10-05T12:47:07.348Z,2.10
2018-10-05T12:49:36.484Z,1.80
2018-10-05T12:52:05.022Z,1.63
2018-10-05T12:54:33.556Z,2.03
2018-10-05T12:57:02.189Z,1.90
2018-10-05T12:59:30.865Z,1.97
2018-10-05T13:01:59.340Z,2.20
2018-10-05T13:04:27.850Z,2.07
2018-10-05T13:06:56.305Z,2.00
2018-10-05T13:09:24.851Z,1.90
2018-10-05T13:11:53.349Z,1.40
2018-10-05T13:14:21.881Z,1.60
2018-10-05T13:16:50.416Z,1.90
2018-10-05T13:19:18.889Z,1.90
2018-10-05T13:21:47.358Z,1.70
2018-10-05T13:24:15.928Z,1.60
2018-10-05T13:26:44.395Z,1.87
2018-10-05T13:29:12.896Z,1.80
2018-10-05T13:31:41.423Z,1.90
2018-10-05T13:34:10.000Z,1.67
2018-10-05T13:36:38.410Z,1.70
2018-10-05T13:39:09.081Z,1.30
2018-10-05T13:41:37.631Z,1.60
2018-10-05T13:44:06.232Z,1.60
2018-10-05T13:46:35.248Z,1.30
2018-10-05T13:49:04.973Z,1.53
2018-10-05T13:51:33.904Z,1.40
2018-10-05T13:54:02.464Z,1.30
2018-10-05T13:56:31.075Z,1.60
2018-10-05T13:58:59.625Z,1.40
2018-10-05T14:01:28.666Z,1.40
2018-10-05T14:03:57.286Z,1.30
2018-10-05T14:06:25.899Z,1.50
2018-10-05T14:08:54.390Z,1.10
2018-10-05T14:11:22.969Z,1.33
2018-10-05T14:13:51.878Z,1.30
2018-10-05T14:16:20.374Z,1.27
2018-10-05T14:18:48.844Z,1.30
2018-10-05T14:21:18.049Z,1.40
2018-10-05T14:23:46.583Z,1.20
2018-10-05T14:26:15.312Z,1.33
2018-10-05T14:28:43.878Z,1.40
2018-10-05T14:31:12.504Z,1.63
2018-10-05T14:33:41.123Z,1.27
2018-10-05T14:36:09.641Z,1.20
2018-10-05T14:38:38.319Z,1.20
2018-10-05T14:41:06.981Z,1.30
2018-10-05T14:43:35.555Z,1.47
2018-10-05T14:46:04.151Z,1.60
2018-10-05T14:48:32.790Z,1.13
2018-10-05T14:51:01.439Z,1.60
2018-10-05T14:53:30.135Z,1.20
2018-10-05T14:55:58.775Z,1.30
2018-10-05T14:58:27.385Z,1.47
2018-10-05T15:00:56.077Z,1.40
2018-10-05T15:03:24.731Z,1.50
2018-10-05T15:05:53.296Z,1.37
2018-10-05T15:08:21.803Z,1.40
2018-10-05T15:10:50.627Z,1.20
2018-10-05T15:13:19.207Z,1.20
2018-10-05T15:15:47.803Z,1.30
2018-10-05T15:18:16.475Z,1.13
2018-10-05T15:20:45.018Z,1.30
2018-10-05T15:23:13.680Z,1.27
2018-10-05T15:25:42.264Z,1.53
2018-10-05T15:28:10.895Z,1.37
2018-10-05T15:30:39.576Z,1.60
2018-10-05T15:33:08.157Z,1.30
2018-10-05T15:35:36.726Z,1.50
2018-10-05T15:38:05.514Z,1.63
2018-10-05T15:40:34.100Z,1.67
2018-10-05T15:43:02.609Z,1.53
2018-10-05T15:45:31.172Z,1.43
2018-10-05T15:47:59.703Z,1.30
2018-10-05T15:50:28.257Z,1.70
2018-10-05T15:52:57.111Z,2.30
2018-10-05T15:55:25.720Z,1.40
2018-10-05T15:57:54.243Z,1.90
2018-10-05T16:00:23.054Z,1.70
2018-10-05T16:02:51.876Z,1.60
2018-10-05T16:05:20.636Z,1.30
2018-10-05T16:07:49.282Z,1.40
2018-10-05T16:10:17.842Z,1.70
2018-10-05T16:12:46.554Z,1.63
2018-10-05T16:15:15.223Z,2.07
2018-10-05T16:17:43.943Z,2.00
2018-10-05T16:20:12.598Z,1.80
2018-10-05T16:25:31.973Z,2.20
2018-10-05T16:28:00.610Z,1.93
2018-10-05T16:30:29.305Z,2.50
2018-10-05T16:32:57.956Z,1.67
2018-10-05T16:35:26.566Z,1.53
2018-10-05T16:37:55.255Z,1.87
2018-10-05T16:40:23.832Z,1.97
2018-10-05T16:42:52.351Z,2.10
2018-10-05T16:45:21.022Z,1.80
2018-10-05T16:47:49.606Z,2.07
2018-10-05T16:50:18.211Z,2.03
2018-10-05T16:52:46.953Z,1.83
2018-10-05T16:55:15.716Z,1.83
2018-10-05T16:57:44.309Z,2.57
2018-10-05T17:00:12.930Z,2.20
2018-10-05T17:02:41.587Z,2.07
2018-10-05T17:05:10.197Z,2.33
2018-10-05T17:07:39.080Z,2.50
2018-10-05T17:10:07.708Z,2.60
2018-10-05T17:12:36.568Z,2.27
2018-10-05T17:15:05.274Z,2.70
2018-10-05T17:17:33.948Z,2.83
2018-10-05T17:20:02.985Z,3.00
2018-10-05T17:22:31.961Z,3.23
2018-10-05T17:25:00.650Z,2.80
2018-10-05T17:27:29.429Z,3.77
2018-10-05T17:29:58.768Z,3.40
2018-10-05T17:32:27.443Z,3.30
2018-10-05T17:34:56.131Z,4.00
2018-10-05T17:37:24.712Z,3.00
2018-10-05T17:39:53.363Z,2.70
2018-10-05T17:42:22.073Z,2.93
2018-10-05T17:44:50.711Z,3.07
2018-10-05T17:47:19.299Z,3.07
2018-10-05T17:49:47.977Z,2.70
2018-10-05T17:52:16.667Z,2.60
2018-10-05T17:54:45.416Z,2.40
2018-10-05T17:57:14.087Z,3.00
2018-10-05T17:59:44.604Z,2.47
2018-10-05T18:02:13.230Z,2.97
2018-10-05T18:04:41.892Z,2.53
2018-10-05T18:07:10.845Z,2.70
2018-10-05T18:09:39.511Z,2.70
2018-10-05T18:12:08.183Z,2.57
2018-10-05T18:14:36.900Z,2.87
2018-10-05T18:17:05.452Z,2.60
2018-10-05T18:19:34.275Z,2.47
2018-10-05T18:22:02.899Z,2.60
2018-10-05T18:24:31.576Z,3.30
2018-10-05T18:27:00.128Z,2.50
2018-10-05T18:29:29.527Z,2.57
2018-10-05T18:31:58.209Z,3.10
2018-10-05T18:34:26.781Z,2.63
2018-10-05T18:36:56.401Z,2.87
2018-10-05T18:39:25.009Z,2.53
2018-10-05T18:41:53.592Z,3.10
2018-10-05T18:44:22.360Z,2.80
2018-10-05T18:46:51.155Z,3.03
2018-10-05T18:49:20.188Z,2.93
2018-10-05T18:51:48.846Z,2.63
2018-10-05T18:54:17.668Z,2.83
2018-10-05T18:56:57.495Z,2.83
2018-10-05T18:59:26.449Z,2.70
2018-10-05T19:01:55.081Z,3.30
2018-10-05T19:04:24.012Z,2.90
2018-10-05T19:06:52.965Z,3.13
2018-10-05T19:09:21.807Z,3.10
2018-10-05T19:11:50.755Z,3.17
2018-10-05T19:14:19.544Z,3.00
2018-10-05T19:16:48.315Z,3.27
2018-10-05T19:19:17.306Z,3.10
2018-10-05T19:21:46.359Z,3.00
2018-10-05T19:24:15.015Z,3.20
2018-10-05T19:26:43.836Z,3.30
2018-10-05T19:29:12.804Z,3.40
2018-10-05T19:31:41.533Z,3.40
2018-10-05T19:34:10.416Z,3.20
2018-10-05T19:36:39.115Z,3.30
2018-10-05T19:39:09.575Z,3.40
2018-10-05T19:41:38.938Z,3.20
2018-10-05T19:44:08.764Z,3.33
2018-10-05T19:46:37.643Z,3.30
2018-10-05T19:49:06.308Z,3.10
2018-10-05T19:51:35.015Z,3.43
2018-10-05T19:54:04.653Z,3.47
2018-10-05T19:56:33.342Z,3.97
2018-10-05T19:59:01.936Z,3.43
2018-10-05T20:01:30.594Z,4.07
2018-10-05T20:03:59.217Z,3.80
2018-10-05T20:06:27.795Z,4.07
2018-10-05T20:08:56.583Z,3.50
2018-10-05T20:11:25.231Z,4.20
2018-10-05T20:13:53.813Z,3.50
2018-10-05T20:16:22.726Z,4.07
2018-10-05T20:18:51.315Z,4.07
2018-10-05T20:21:19.848Z,4.10
2018-10-05T20:23:48.518Z,3.60
2018-10-05T20:26:17.141Z,3.93
2018-10-05T20:28:45.748Z,3.90
2018-10-05T20:31:14.335Z,4.00
2018-10-05T20:33:42.922Z,4.30
2018-10-05T20:36:11.715Z,3.57
2018-10-05T20:38:40.169Z,4.43
2018-10-05T20:41:08.751Z,4.40
2018-10-05T20:43:37.325Z,4.50
2018-10-05T20:46:06.292Z,4.40
2018-10-05T20:48:34.834Z,3.90
2018-10-05T20:51:03.595Z,4.00
2018-10-05T20:53:32.166Z,4.63
2018-10-05T20:56:00.724Z,3.97
2018-10-05T20:58:29.301Z,4.83
2018-10-05T21:00:57.820Z,4.00
2018-10-05T21:03:26.399Z,4.23
2018-10-05T21:05:55.047Z,4.60
2018-10-05T21:08:23.675Z,4.27
2018-10-05T21:10:52.275Z,4.97
2018-10-05T21:13:20.884Z,4.47
2018-10-05T21:15:49.463Z,5.33
2018-10-05T21:18:17.976Z,4.53
2018-10-05T21:20:46.656Z,4.93
2018-10-05T21:23:15.276Z,5.17
2018-10-05T21:25:44.137Z,4.73
2018-10-05T21:28:12.892Z,4.40
2018-10-05T21:30:41.509Z,4.23
2018-10-05T21:33:10.391Z,5.23
2018-10-05T21:35:39.076Z,4.60
2018-10-05T21:38:07.845Z,4.63
2018-10-05T21:40:36.470Z,4.33
2018-10-05T21:43:05.162Z,5.27
2018-10-05T21:45:33.824Z,4.40
2018-10-05T21:48:03.273Z,5.43
2018-10-05T21:50:31.944Z,4.97
2018-10-05T21:53:02.491Z,5.10
2018-10-05T21:55:31.847Z,5.20
2018-10-05T21:58:00.661Z,4.40
2018-10-05T22:00:36.394Z,4.93
2018-10-05T22:03:05.186Z,4.80
2018-10-05T22:05:33.850Z,4.93
2018-10-05T22:08:02.542Z,5.07
2018-10-05T22:10:33.344Z,5.00
2018-10-05T22:13:02.012Z,4.60
2018-10-05T22:15:30.693Z,5.37
2018-10-05T22:17:59.282Z,5.73
2018-10-05T22:20:27.973Z,5.10
2018-10-05T22:22:56.720Z,5.20
2018-10-05T22:25:25.525Z,5.57
2018-10-05T22:27:54.187Z,5.30
2018-10-05T22:30:22.848Z,4.80
2018-10-05T22:32:51.533Z,5.43
2018-10-05T22:35:20.189Z,5.47
2018-10-05T22:37:48.778Z,4.90
2018-10-05T22:40:17.428Z,5.90
2018-10-05T22:42:46.061Z,5.20
2018-10-05T22:45:14.723Z,5.30
2018-10-05T22:47:43.395Z,5.70
2018-10-05T22:50:12.040Z,5.23
2018-10-05T22:52:40.697Z,5.17
2018-10-05T22:55:09.331Z,5.57
2018-10-05T22:57:37.999Z,6.00
2018-10-05T23:00:06.920Z,5.97
2018-10-05T23:02:35.656Z,6.13
2018-10-05T23:05:05.152Z,6.37
2018-10-05T23:07:37.066Z,5.67
2018-10-05T23:10:06.233Z,6.03
2018-10-05T23:12:35.261Z,5.87
2018-10-05T23:15:05.185Z,6.10
2018-10-05T23:17:34.851Z,5.83
2018-10-05T23:20:03.699Z,6.73
2018-10-05T23:22:33.224Z,6.43
2018-10-05T23:25:02.424Z,6.27
2018-10-05T23:27:31.583Z,6.67
2018-10-05T23:30:00.595Z,6.33
2018-10-05T23:32:29.478Z,5.97
2018-10-05T23:34:58.577Z,6.50
2018-10-05T23:37:27.652Z,6.70
2018-10-05T23:39:56.537Z,7.13
2018-10-05T23:42:25.531Z,7.23
2018-10-05T23:44:54.578Z,6.53
2018-10-05T23:47:23.577Z,6.53
2018-10-05T23:49:52.144Z,6.00
2018-10-05T23:52:47.380Z,6.37
2018-10-05T23:55:16.173Z,6.73
2018-10-05T23:57:45.227Z,6.90
